Nogal, NM (88341)

7:01 PM MDT on September 15, 2014 (GMT -0600)
coyote mesa | Change Station
CLOSE
Current Station
Personal Weather Station
Location: Alto, NM
Elevation: 7323 ft
Nearby Weather Stations
Active Advisory: Special Statement

Elev 7323 ft 33.43 °N, 105.66 °W | Updated 8 minutes ago

Partly Cloudy
Partly Cloudy
62.2 °F
Feels Like 62.2 °F
N
0.0
Wind Variable Wind from West

Today
High -- | Low -- °F
--% Chance of Precip.
Yesterday
High -- | Low -- °F
Precip. -- in
6:46 AM 7:09 PM
Waning Gibbous, 50% visible
Pressure 30.36 in
Visibility 10.0 miles
Clouds Clear
Dew Point 58 °F
Humidity 86%
Rainfall 0.01 in
Snow Depth 0 in , 0 in , 2 in
UV 0 out of 12
Pollen 8.90 out of 12
Air Quality Not available.
Flu Activity Not available.
METAR KSRR 160035Z AUTO 13004KT 10SM CLR 17/14 A3036 RMK AO2

More Conditions Fewer Conditions

Pressure 30.36 in
Visibility 10.0 miles
Clouds Clear
Dew Point 58 °F
Humidity 86%
Rainfall 0.01 in
Snow Depth 0 in , 0 in , 2 in
UV 0 out of 12
Pollen 8.90 out of 12
Air Quality Not available.
Flu Activity Not available.
METAR KSRR 160035Z AUTO 13004KT 10SM CLR 17/14 A3036 RMK AO2

More Conditions Fewer Conditions

Nowcast | as of 5:04 PM MDT on September 15, 2014

Scattered showers and thunderstorms will continue to rapidly develop over much of central and western New Mexico through early evening. The showers and storms over central New Mexico are moving west at 10 mph while storms over western New Mexico are moving east at 5 mph. Expect brief heavy rain...small hail and strong and gusty winds to 40 mph with the stronger storms. Local rainfall amounts of up to an inch and a half within two hours are possible from the stronger storms.

×

10-Day Weather Forecast

Almanac

Astronomy

Sep. 15, 2014 Rise Set
Actual Time 6:46 AM MDT 7:09 PM MDT
Civil Twilight 6:21 AM MDT 7:34 PM MDT
Nautical Twilight 5:52 AM MDT 8:03 PM MDT
Astronomical Twilight 5:22 AM MDT 8:32 PM MDT
Moon No Moon Rise 1:31 PM MDT (9/15)
Length of Visible Light 13h 12m
Length of Day
12h 22m
Tomorrow will be 2m 3s shorter.
Waning Gibbous, 50% of the Moon is Illuminated
Today
Waning Gibbous
Sep 15
Last Quarter
Sep 24
New
Oct 1
First Quarter
Oct 8
Full

Today's Extremes

State Highs State Lows

Community

WunderPhotos

Upload Photos

1,753,630 photos uploaded!

WunderBlogs® & News

Nearby

Snow Depth

Station Depth Elevation
Senorita Divide #2 0 in 8600 ft
Quemazon 0 in 9500 ft
Wesner Springs 2 in 11120 ft
Silver Creek Divide 20 in 9000 ft
Santa Fe 1 in 11445 ft

Earthquake Activity

City Distance Mag. Time & Date
No recent earthquake activity has been reported nearby.
Minimum magnitude displayed is 2.5.

Coastal Water Temperatures

Place Temperature
No Stations Reporting

Nearby Weather Stations